createdAt,value
2022-09-12T00:00:47.621Z,86.2
2022-09-12T00:01:51.037Z,86.2
2022-09-12T00:02:54.309Z,86.2
2022-09-12T00:03:57.816Z,86.4
2022-09-12T00:05:00.369Z,86.8
2022-09-12T00:06:03.348Z,86.6
2022-09-12T00:07:06.545Z,86.3
2022-09-12T00:08:09.367Z,86.2
2022-09-12T00:09:12.522Z,86.3
2022-09-12T00:10:15.111Z,86.4
2022-09-12T00:11:18.536Z,86.4
2022-09-12T00:12:21.986Z,86.6
2022-09-12T00:13:24.519Z,87.1
2022-09-12T00:14:26.962Z,87.1
2022-09-12T00:15:30.405Z,86.9
2022-09-12T00:16:33.858Z,86.6
2022-09-12T00:17:37.731Z,86.5
2022-09-12T00:18:40.165Z,86.5
2022-09-12T00:19:43.594Z,86.7
2022-09-12T00:20:47.248Z,86.8
2022-09-12T00:21:50.460Z,86.8
2022-09-12T00:22:54.101Z,86.9
2022-09-12T00:23:57.346Z,86.9
2022-09-12T00:25:00.597Z,87.1
2022-09-12T00:26:03.663Z,86.9
2022-09-12T00:27:07.446Z,87.1
2022-09-12T00:28:10.519Z,86.9
2022-09-12T00:29:13.681Z,87.3
2022-09-12T00:30:15.920Z,87.1
2022-09-12T00:31:18.446Z,86.8
2022-09-12T00:32:21.057Z,86.6
2022-09-12T00:33:23.767Z,86.7
2022-09-12T00:34:26.580Z,86.7
2022-09-12T00:35:29.293Z,86.6
2022-09-12T00:36:32.211Z,86.4
2022-09-12T00:37:34.527Z,86.8
2022-09-12T00:38:38.006Z,86.4
2022-09-12T00:39:42.173Z,86.5
2022-09-12T00:40:45.437Z,86.3
2022-09-12T00:41:48.025Z,86.4
2022-09-12T00:42:50.535Z,86.5
2022-09-12T00:43:53.036Z,86.8
2022-09-12T00:44:56.195Z,86.6
2022-09-12T00:45:59.146Z,86.4
2022-09-12T00:47:02.636Z,86.2
2022-09-12T00:48:05.253Z,86.2
2022-09-12T00:49:07.767Z,86.1
2022-09-12T00:50:10.951Z,86.3
2022-09-12T00:51:14.638Z,86.3
2022-09-12T00:52:18.397Z,86.3
2022-09-12T00:53:21.534Z,86.3
2022-09-12T00:54:25.290Z,86.4
2022-09-12T00:55:28.130Z,86.3
2022-09-12T00:56:31.221Z,86.2
2022-09-12T00:57:34.382Z,86.2
2022-09-12T00:58:37.528Z,86.3
2022-09-12T00:59:40.961Z,86.3
2022-09-12T01:00:44.020Z,86.5
2022-09-12T01:01:48.568Z,86.7
2022-09-12T01:02:51.877Z,86.7
2022-09-12T01:03:54.669Z,86.6
2022-09-12T01:04:57.274Z,86.5
2022-09-12T01:06:00.518Z,86.9
2022-09-12T01:07:03.581Z,86.9
2022-09-12T01:08:06.601Z,86.7
2022-09-12T01:09:09.588Z,86.7
2022-09-12T01:10:13.331Z,86.8
2022-09-12T01:11:16.354Z,86.7
2022-09-12T01:12:19.247Z,86.8
2022-09-12T01:13:22.467Z,86.8
2022-09-12T01:14:25.345Z,87.1
2022-09-12T01:15:28.062Z,87
2022-09-12T01:16:31.022Z,86.9
2022-09-12T01:17:34.675Z,86.4
2022-09-12T01:18:37.948Z,86.3
2022-09-12T01:19:41.029Z,86.3
2022-09-12T01:20:44.091Z,86.1
2022-09-12T01:21:46.799Z,86.4
2022-09-12T01:22:50.537Z,86.3
2022-09-12T01:23:53.015Z,86.4
2022-09-12T01:24:55.533Z,86.6
2022-09-12T01:25:59.295Z,86.7
2022-09-12T01:27:02.141Z,86.5
2022-09-12T01:28:05.608Z,86.8
2022-09-12T01:29:08.431Z,86.8
2022-09-12T01:30:11.246Z,86.5
2022-09-12T01:31:14.404Z,86.5
2022-09-12T01:32:18.136Z,86.8
2022-09-12T01:33:21.617Z,86.5
2022-09-12T01:34:24.493Z,86.5
2022-09-12T01:35:28.017Z,86.6
2022-09-12T01:36:30.916Z,86.4
2022-09-12T01:37:33.702Z,86.2
2022-09-12T01:38:36.628Z,86.5
2022-09-12T01:39:39.977Z,86.7
2022-09-12T01:40:44.332Z,86.5
2022-09-12T01:41:48.076Z,86.3
2022-09-12T01:42:51.207Z,86.1
2022-09-12T01:43:54.222Z,86.5
2022-09-12T01:44:57.951Z,86.5
2022-09-12T01:46:01.581Z,86.7
2022-09-12T01:47:04.606Z,86.4
2022-09-12T01:48:07.522Z,86.8
2022-09-12T01:49:10.433Z,86.5
2022-09-12T01:50:14.224Z,86.4
2022-09-12T01:51:16.812Z,86.5
2022-09-12T01:52:19.608Z,86.4
2022-09-12T01:53:23.035Z,86.4
2022-09-12T01:54:25.478Z,86.5
2022-09-12T01:55:28.948Z,86.6
2022-09-12T01:56:32.075Z,86.4
2022-09-12T01:57:36.109Z,86.4
2022-09-12T01:58:39.242Z,86.4
2022-09-12T01:59:42.471Z,86.4
2022-09-12T02:00:45.331Z,86.5
2022-09-12T02:01:49.242Z,86.7
2022-09-12T02:02:52.732Z,86.6
2022-09-12T02:03:55.900Z,86.6
2022-09-12T02:04:58.543Z,86.5
2022-09-12T02:06:01.882Z,86.7
2022-09-12T02:07:05.034Z,86.6
2022-09-12T02:08:08.001Z,86.5
2022-09-12T02:09:11.437Z,86.3
2022-09-12T02:10:14.176Z,86.4
2022-09-12T02:11:17.635Z,86.6
2022-09-12T02:12:20.125Z,86.7
2022-09-12T02:13:23.897Z,86.5
2022-09-12T02:14:26.811Z,86.4
2022-09-12T02:15:30.560Z,86.5
2022-09-12T02:16:33.657Z,86.5
2022-09-12T02:17:37.281Z,86.6
2022-09-12T02:18:40.333Z,86.7
2022-09-12T02:19:43.472Z,87.1
2022-09-12T02:20:50.043Z,87.2
2022-09-12T02:21:53.476Z,87.5
2022-09-12T02:22:56.643Z,87.5
2022-09-12T02:23:59.797Z,87.5
2022-09-12T02:25:03.142Z,87.4
2022-09-12T02:26:06.284Z,87.2
2022-09-12T02:27:09.676Z,87.3
2022-09-12T02:28:13.374Z,86.8
2022-09-12T02:29:16.923Z,87
2022-09-12T02:30:19.939Z,86.7
2022-09-12T02:31:23.083Z,86.5
2022-09-12T02:32:26.804Z,86.4
2022-09-12T02:33:29.876Z,86.4
2022-09-12T02:34:32.674Z,86.4
2022-09-12T02:35:35.257Z,86.4
2022-09-12T02:36:37.685Z,86.3
2022-09-12T02:37:40.787Z,86.3
2022-09-12T02:38:44.566Z,86.3
2022-09-12T02:39:47.459Z,86.4
2022-09-12T02:40:51.027Z,86.4
2022-09-12T02:41:53.926Z,86.1
2022-09-12T02:42:57.122Z,86.2
2022-09-12T02:43:59.830Z,86.2
2022-09-12T02:45:03.384Z,86.1
2022-09-12T02:46:06.795Z,85.9
2022-09-12T02:47:09.852Z,85.7
2022-09-12T02:48:14.622Z,85.8
2022-09-12T02:49:16.918Z,86
2022-09-12T02:50:20.043Z,86
2022-09-12T02:51:24.734Z,85.9
2022-09-12T02:52:27.671Z,85.8
2022-09-12T02:53:30.407Z,85.8
2022-09-12T02:54:33.196Z,85.9
2022-09-12T02:55:36.696Z,85.9
2022-09-12T02:56:39.202Z,86.1
2022-09-12T02:57:41.881Z,86.2
2022-09-12T02:58:45.230Z,86.3
2022-09-12T02:59:48.603Z,86.3
2022-09-12T03:00:52.922Z,86.3
2022-09-12T03:01:56.828Z,86.3
2022-09-12T03:03:00.547Z,86.3
2022-09-12T03:04:02.977Z,86.2
2022-09-12T03:05:06.666Z,86.3
2022-09-12T03:06:09.539Z,86.4
2022-09-12T03:07:12.136Z,86.4
2022-09-12T03:08:14.995Z,86.4
2022-09-12T03:09:17.786Z,86.5
2022-09-12T03:10:21.143Z,86.5
2022-09-12T03:11:24.286Z,86.5
2022-09-12T03:12:27.531Z,86.4
2022-09-12T03:13:30.403Z,86.4
2022-09-12T03:14:33.652Z,86.6
2022-09-12T03:15:36.985Z,86.6
2022-09-12T03:16:41.059Z,86.4
2022-09-12T03:17:44.317Z,86.3
2022-09-12T03:18:47.641Z,86.2
2022-09-12T03:19:51.090Z,86.2
2022-09-12T03:20:53.678Z,86.4
2022-09-12T03:21:56.815Z,86.2
2022-09-12T03:23:00.028Z,86.4
2022-09-12T03:24:03.090Z,87.2
2022-09-12T03:25:05.891Z,86.7
2022-09-12T03:26:08.321Z,86.7
2022-09-12T03:27:11.385Z,86.2
2022-09-12T03:28:14.597Z,86.1
2022-09-12T03:29:17.127Z,86.2
2022-09-12T03:30:20.556Z,86.3
2022-09-12T03:31:23.396Z,86.3
2022-09-12T03:32:27.151Z,86.5
2022-09-12T03:33:30.437Z,86.8
2022-09-12T03:34:33.336Z,86.6
2022-09-12T03:35:36.134Z,86.5
2022-09-12T03:36:38.646Z,86.5
2022-09-12T03:37:41.448Z,86.4
2022-09-12T03:38:44.280Z,86.5
2022-09-12T03:39:47.717Z,86.5
2022-09-12T03:40:55.846Z,86.6
2022-09-12T03:41:59.278Z,86.4
2022-09-12T03:43:02.160Z,86.3
2022-09-12T03:44:05.043Z,86.2
2022-09-12T03:45:08.315Z,86.2
2022-09-12T03:46:11.482Z,86.2
2022-09-12T03:47:14.552Z,86.4
2022-09-12T03:48:18.094Z,86.4
2022-09-12T03:49:21.194Z,86.2
2022-09-12T03:50:24.012Z,86
2022-09-12T03:51:27.276Z,86
2022-09-12T03:52:30.441Z,86.3
2022-09-12T03:53:33.691Z,86.5
2022-09-12T03:54:37.394Z,86.9
2022-09-12T03:55:40.736Z,86.5
2022-09-12T03:56:43.798Z,87
2022-09-12T03:57:46.864Z,86.5
2022-09-12T03:58:51.211Z,86.5
2022-09-12T03:59:54.365Z,86.2
2022-09-12T04:00:57.093Z,86.2
2022-09-12T04:02:01.193Z,86.2
2022-09-12T04:03:04.097Z,86.5
2022-09-12T04:04:07.392Z,86.6
2022-09-12T04:05:10.704Z,86.6
2022-09-12T04:06:13.892Z,86.5
2022-09-12T04:07:16.786Z,86.3
2022-09-12T04:08:19.454Z,86.3
2022-09-12T04:09:22.613Z,86.1
2022-09-12T04:10:25.403Z,86.2
2022-09-12T04:11:28.897Z,86.2
2022-09-12T04:12:31.616Z,86.4
2022-09-12T04:13:34.747Z,86.5
2022-09-12T04:14:37.628Z,86.6
2022-09-12T04:15:41.044Z,86.5
2022-09-12T04:16:44.431Z,86.4
2022-09-12T04:17:47.123Z,86.3
2022-09-12T04:18:50.571Z,86.3
2022-09-12T04:19:54.081Z,86.2
2022-09-12T04:20:57.555Z,86.3
2022-09-12T04:22:00.916Z,86.4
2022-09-12T04:23:03.223Z,86.5
2022-09-12T04:24:06.210Z,86.4
2022-09-12T04:25:09.280Z,86.5
2022-09-12T04:26:12.195Z,86.5
2022-09-12T04:27:14.975Z,86.5
2022-09-12T04:28:18.023Z,86.6
2022-09-12T04:29:20.991Z,86.7
2022-09-12T04:30:24.445Z,86.7
2022-09-12T04:31:27.164Z,86.7
2022-09-12T04:32:29.236Z,86.5
2022-09-12T04:33:32.226Z,86.5
2022-09-12T04:34:35.011Z,86.6
2022-09-12T04:35:38.768Z,86.5
2022-09-12T04:36:42.229Z,86.5
2022-09-12T04:37:46.045Z,87.1
2022-09-12T04:38:49.545Z,86.7
2022-09-12T04:39:52.766Z,86.6
2022-09-12T04:40:55.622Z,86.5
2022-09-12T04:41:59.068Z,86.6
2022-09-12T04:43:01.937Z,86.6
2022-09-12T04:44:05.006Z,86.5
2022-09-12T04:45:07.617Z,86.6
2022-09-12T04:46:10.657Z,86.4
2022-09-12T04:47:13.982Z,86.4
2022-09-12T04:48:16.793Z,86.3
2022-09-12T04:49:19.926Z,86.5
2022-09-12T04:50:23.248Z,86.4
2022-09-12T04:51:26.985Z,86.3
2022-09-12T04:52:30.234Z,86
2022-09-12T04:53:32.743Z,86
2022-09-12T04:54:35.628Z,86.3
2022-09-12T04:55:38.409Z,86.3
2022-09-12T04:56:41.833Z,86.6
2022-09-12T04:57:44.694Z,86.6
2022-09-12T04:58:47.716Z,86.8
2022-09-12T04:59:50.737Z,86.8
2022-09-12T05:00:55.100Z,86.7
2022-09-12T05:01:58.891Z,86.6
2022-09-12T05:03:02.748Z,86.7
2022-09-12T05:04:05.816Z,86.7
2022-09-12T05:05:09.584Z,86.8
2022-09-12T05:06:12.804Z,86.6
2022-09-12T05:07:16.563Z,86.5
2022-09-12T05:08:19.973Z,86.6
2022-09-12T05:09:23.487Z,86.6
2022-09-12T05:10:27.106Z,86.6
2022-09-12T05:12:09.902Z,86.5
2022-09-12T05:13:12.622Z,86.4
2022-09-12T05:14:15.776Z,86.5
2022-09-12T05:15:19.203Z,86.5
2022-09-12T05:16:22.281Z,86.6
2022-09-12T05:17:25.861Z,86.5
2022-09-12T05:18:29.277Z,86.4
2022-09-12T05:19:32.441Z,86.4
2022-09-12T05:20:35.757Z,86.3
2022-09-12T05:21:38.616Z,86.3
2022-09-12T05:22:42.404Z,86.3
2022-09-12T05:23:45.308Z,86.2
2022-09-12T05:24:51.683Z,86
2022-09-12T05:25:54.858Z,86.2
2022-09-12T05:26:57.417Z,86.2
2022-09-12T05:28:00.469Z,86.2
2022-09-12T05:29:03.609Z,86.4
2022-09-12T05:30:06.510Z,86.3
2022-09-12T05:31:10.024Z,86.2
2022-09-12T05:32:12.827Z,86.1
2022-09-12T05:33:15.969Z,86.2
2022-09-12T05:34:18.479Z,86.1
2022-09-12T05:35:22.198Z,86.2
2022-09-12T05:36:25.466Z,86
2022-09-12T05:37:29.462Z,86.1
2022-09-12T05:38:33.291Z,86.1
2022-09-12T05:39:36.759Z,86
2022-09-12T05:40:40.505Z,86.1
2022-09-12T05:41:43.231Z,86
2022-09-12T05:42:45.946Z,86
2022-09-12T05:43:48.967Z,86.3
2022-09-12T05:44:52.350Z,86.4
2022-09-12T05:45:55.225Z,86.3
2022-09-12T05:46:58.685Z,86.5
2022-09-12T05:48:01.472Z,86.2
2022-09-12T05:49:04.266Z,86.2
2022-09-12T05:50:07.338Z,86.1
2022-09-12T05:51:09.862Z,85.9
2022-09-12T05:52:13.329Z,86.1
2022-09-12T05:53:16.285Z,86.5
2022-09-12T05:54:20.388Z,86.4
2022-09-12T05:55:23.369Z,86.3
2022-09-12T05:56:26.835Z,86.1
2022-09-12T05:57:29.903Z,85.7
2022-09-12T05:58:33.475Z,85.8
2022-09-12T05:59:36.542Z,85.7
2022-09-12T06:00:39.407Z,85.7
2022-09-12T06:01:42.506Z,85.5
2022-09-12T06:02:45.922Z,85.6
2022-09-12T06:03:48.704Z,85.6
2022-09-12T06:04:51.695Z,85.6
2022-09-12T06:05:54.482Z,85.6
2022-09-12T06:06:57.284Z,85.5
2022-09-12T06:08:00.849Z,86
2022-09-12T06:09:03.999Z,86.6
2022-09-12T06:10:08.027Z,86.8
2022-09-12T06:11:11.234Z,86.9
2022-09-12T06:12:14.593Z,86.8
2022-09-12T06:13:17.577Z,87.2
2022-09-12T06:14:21.313Z,87.1
2022-09-12T06:15:24.729Z,86.3
2022-09-12T06:16:28.256Z,86
2022-09-12T06:17:31.811Z,87.3
2022-09-12T06:18:34.731Z,87.2
2022-09-12T06:19:38.141Z,86.4
2022-09-12T06:20:40.648Z,85.8
2022-09-12T06:21:43.144Z,85.8
2022-09-12T06:22:45.730Z,85.9
2022-09-12T06:23:48.906Z,85.6
2022-09-12T06:24:59.021Z,85.7
2022-09-12T06:26:02.218Z,85.4
2022-09-12T06:27:05.321Z,85.3
2022-09-12T06:28:08.287Z,85.3
2022-09-12T06:29:11.365Z,85.1
2022-09-12T06:30:14.086Z,85.2
2022-09-12T06:31:17.885Z,85
2022-09-12T06:32:21.035Z,85
2022-09-12T06:33:24.105Z,84.9
2022-09-12T06:34:27.202Z,85.2
2022-09-12T06:35:29.878Z,85.6
2022-09-12T06:36:32.604Z,85.5
2022-09-12T06:37:36.338Z,86.5
2022-09-12T06:38:39.784Z,86.2
2022-09-12T06:39:42.801Z,85.5
2022-09-12T06:40:45.453Z,85.7
2022-09-12T06:41:49.201Z,85.8
2022-09-12T06:42:52.760Z,85.4
2022-09-12T06:43:56.225Z,85.5
2022-09-12T06:44:59.092Z,85.2
2022-09-12T06:46:02.632Z,84.6
2022-09-12T06:47:06.425Z,84.6
2022-09-12T06:48:09.570Z,86.1
2022-09-12T06:49:11.809Z,85.9
2022-09-12T06:50:14.682Z,86.7
2022-09-12T06:51:18.040Z,86.4
2022-09-12T06:52:21.688Z,85.3
2022-09-12T06:53:24.006Z,86.3
2022-09-12T06:54:26.522Z,85.4
2022-09-12T06:55:29.424Z,86.3
2022-09-12T06:56:32.480Z,87.1
2022-09-12T06:57:35.746Z,87.3
2022-09-12T06:58:38.957Z,87.6
2022-09-12T06:59:42.032Z,87.4
2022-09-12T07:00:45.284Z,87.5
2022-09-12T07:01:48.259Z,86.2
2022-09-12T07:02:52.136Z,85.9
2022-09-12T07:03:55.216Z,85.7
2022-09-12T07:04:58.384Z,85.5
2022-09-12T07:06:01.469Z,86.5
2022-09-12T07:07:03.984Z,85.3
2022-09-12T07:08:07.209Z,86.1
2022-09-12T07:09:10.380Z,85.8
2022-09-12T07:10:13.533Z,85.9
2022-09-12T07:11:18.730Z,85.7
2022-09-12T07:12:22.432Z,85.8
2022-09-12T07:13:26.546Z,85.2
2022-09-12T07:14:29.579Z,85.5
2022-09-12T07:15:32.736Z,85.1
2022-09-12T07:16:36.234Z,85.2
2022-09-12T07:17:40.255Z,85.3
2022-09-12T07:18:43.404Z,85.3
2022-09-12T07:19:46.239Z,84.8
2022-09-12T07:20:49.743Z,84.6
2022-09-12T07:21:59.857Z,82.5
2022-09-12T07:23:02.746Z,82.8
2022-09-12T07:24:05.262Z,82.6
2022-09-12T07:25:08.599Z,82.2
2022-09-12T07:26:11.488Z,82.7
2022-09-12T07:27:14.908Z,82
2022-09-12T07:28:17.783Z,81.8
2022-09-12T07:29:39.206Z,82.4
2022-09-12T07:30:43.100Z,81.3
2022-09-12T07:31:45.400Z,81.4
2022-09-12T07:32:48.740Z,81.5
2022-09-12T07:33:56.194Z,81.8
2022-09-12T07:34:59.306Z,82
2022-09-12T07:36:02.138Z,81.5
2022-09-12T07:37:04.981Z,80.8
2022-09-12T07:38:08.044Z,80.4
2022-09-12T07:39:11.146Z,79.9
2022-09-12T07:40:14.486Z,80.2
2022-09-12T07:41:17.454Z,80.2
2022-09-12T07:42:20.855Z,79.6
2022-09-12T07:43:24.306Z,80.4
2022-09-12T07:44:28.327Z,80.3
2022-09-12T07:45:31.788Z,80.4
2022-09-12T07:46:34.715Z,79.6
2022-09-12T07:47:37.842Z,79.2
2022-09-12T07:48:41.095Z,78.8
2022-09-12T07:49:43.603Z,78.4
2022-09-12T07:50:46.838Z,78.3
2022-09-12T07:51:49.973Z,78.1
2022-09-12T07:52:52.765Z,77.5
2022-09-12T07:53:55.836Z,76.7
2022-09-12T07:54:59.138Z,75.2
2022-09-12T07:56:02.863Z,75
2022-09-12T07:57:05.785Z,76.6
2022-09-12T07:58:09.222Z,76.7
2022-09-12T07:59:12.565Z,76.3
2022-09-12T08:00:16.301Z,76
2022-09-12T08:01:20.271Z,75.5
2022-09-12T08:02:23.647Z,76.8
2022-09-12T08:03:27.226Z,75.7
2022-09-12T08:04:30.680Z,75.3
2022-09-12T08:05:33.850Z,74.6
2022-09-12T08:06:37.376Z,78
2022-09-12T08:07:40.559Z,79.2
2022-09-12T08:08:44.006Z,79.7
2022-09-12T08:09:47.072Z,78.5
2022-09-12T08:10:50.028Z,77.5
2022-09-12T08:11:52.842Z,79.4
2022-09-12T08:12:55.704Z,79.7
2022-09-12T08:13:59.470Z,79.3
2022-09-12T08:15:02.058Z,79.1
2022-09-12T08:16:06.282Z,76.8
2022-09-12T08:17:10.186Z,76.6
2022-09-12T08:18:13.729Z,75.2
2022-09-12T08:19:16.913Z,74.2
2022-09-12T08:20:23.372Z,72.6
2022-09-12T08:21:30.877Z,72.6
2022-09-12T08:22:34.377Z,72.4
2022-09-12T08:23:37.801Z,72.9
2022-09-12T08:24:40.993Z,72.2
2022-09-12T08:25:44.055Z,72
2022-09-12T08:26:47.199Z,73.2
2022-09-12T08:27:49.718Z,73.1
2022-09-12T08:28:52.867Z,72.1
2022-09-12T08:29:56.233Z,70.9
2022-09-12T08:31:00.253Z,72.7
2022-09-12T08:32:04.515Z,73.6
2022-09-12T08:33:08.333Z,74.1
2022-09-12T08:34:12.008Z,72.4
2022-09-12T08:35:14.515Z,73.9
2022-09-12T08:36:17.938Z,72.3
2022-09-12T08:37:21.382Z,73
2022-09-12T08:38:24.861Z,70.8
2022-09-12T08:39:27.661Z,70.8
2022-09-12T08:40:30.644Z,72.1
2022-09-12T08:41:33.788Z,71.8
2022-09-12T08:42:36.434Z,70.9
2022-09-12T08:43:38.754Z,69.2
2022-09-12T08:44:42.108Z,68.3
2022-09-12T08:45:45.486Z,67.7
2022-09-12T08:46:48.660Z,67.8
2022-09-12T08:47:52.751Z,67.2
2022-09-12T08:48:56.109Z,67.1
2022-09-12T08:49:59.910Z,66.7
2022-09-12T08:51:03.709Z,67.1
2022-09-12T08:52:06.033Z,66.2
2022-09-12T08:53:08.998Z,67.3
2022-09-12T08:54:12.093Z,68.1
2022-09-12T08:55:15.470Z,67.6
2022-09-12T08:56:19.199Z,68.7
2022-09-12T08:57:22.274Z,69.2
2022-09-12T08:58:25.790Z,69.6
2022-09-12T08:59:29.795Z,68.7
2022-09-12T09:00:32.476Z,65.4
2022-09-12T09:01:36.335Z,64.4
2022-09-12T09:02:40.633Z,64.9
2022-09-12T09:03:43.625Z,67.1
2022-09-12T09:04:47.420Z,67.3
2022-09-12T09:05:50.968Z,68.4
2022-09-12T09:06:54.117Z,69.4
2022-09-12T09:07:57.852Z,67.7
2022-09-12T09:09:00.020Z,65.3
2022-09-12T09:10:03.669Z,63.4
2022-09-12T09:11:06.354Z,61.7
2022-09-12T09:12:09.152Z,60.4
2022-09-12T09:13:12.502Z,60
2022-09-12T09:14:15.377Z,59.4
2022-09-12T09:15:17.723Z,60
2022-09-12T09:16:21.227Z,58.8
2022-09-12T09:17:24.376Z,59.1
2022-09-12T09:18:27.483Z,58.8
2022-09-12T09:19:31.238Z,58.6
2022-09-12T09:20:34.252Z,58.6
2022-09-12T09:21:37.464Z,58.3
2022-09-12T09:22:40.816Z,57.9
2022-09-12T09:23:44.191Z,58.2
2022-09-12T09:24:48.020Z,57.7
2022-09-12T09:25:51.100Z,57.3
2022-09-12T09:26:54.724Z,56.6
2022-09-12T09:27:57.586Z,56.8
2022-09-12T09:29:01.591Z,56.9
2022-09-12T09:30:04.491Z,56.3
2022-09-12T09:31:08.079Z,56
2022-09-12T09:32:11.642Z,55.8
2022-09-12T09:33:14.337Z,55.5
2022-09-12T09:34:17.669Z,55.6
2022-09-12T09:35:21.180Z,57
2022-09-12T09:36:24.421Z,58.3
2022-09-12T09:37:27.365Z,57.1
2022-09-12T09:38:30.510Z,57.2
2022-09-12T09:39:33.655Z,55.8
2022-09-12T09:40:37.100Z,54.7
2022-09-12T09:41:40.291Z,55.6
2022-09-12T09:42:43.941Z,56.2
2022-09-12T09:43:47.382Z,56.8
2022-09-12T09:44:50.376Z,55.4
2022-09-12T09:45:54.095Z,56.5
2022-09-12T09:46:56.539Z,57.4
2022-09-12T09:48:00.226Z,57.3
2022-09-12T09:49:03.672Z,56.6
2022-09-12T09:50:06.362Z,58.1
2022-09-12T09:51:10.102Z,55.3
2022-09-12T09:52:12.566Z,52.8
2022-09-12T09:53:15.980Z,53
2022-09-12T09:54:19.790Z,54.4
2022-09-12T09:55:22.860Z,56.2
2022-09-12T09:56:26.873Z,57.5
2022-09-12T09:57:30.303Z,56.3
2022-09-12T09:58:33.101Z,54.8
2022-09-12T09:59:36.590Z,52.9
2022-09-12T10:00:40.205Z,53
2022-09-12T10:01:43.320Z,53.3
2022-09-12T10:02:46.009Z,52
2022-09-12T10:03:49.331Z,51.2
2022-09-12T10:04:52.540Z,51.7
2022-09-12T10:05:55.863Z,50.9
2022-09-12T10:06:59.337Z,51.4
2022-09-12T10:08:02.416Z,48.7
2022-09-12T10:09:06.462Z,50.2
2022-09-12T10:10:09.889Z,50.8
2022-09-12T10:11:13.340Z,50.6
2022-09-12T10:12:16.759Z,50.3
2022-09-12T10:13:20.190Z,49.3
2022-09-12T10:14:23.183Z,49.8
2022-09-12T10:15:26.131Z,51.1
2022-09-12T10:16:29.223Z,51.7
2022-09-12T10:17:35.235Z,52.7
2022-09-12T10:18:37.901Z,50.5
2022-09-12T10:19:40.141Z,50.3
2022-09-12T10:20:43.251Z,51.4
2022-09-12T10:21:46.978Z,52.1
2022-09-12T10:22:50.442Z,49.7
2022-09-12T10:23:53.819Z,49.9
2022-09-12T10:24:57.059Z,49.6
2022-09-12T10:26:00.139Z,48.8
2022-09-12T10:27:03.140Z,48.9
2022-09-12T10:28:05.938Z,47.7
2022-09-12T10:29:08.820Z,48.7
2022-09-12T10:30:11.435Z,50.5
2022-09-12T10:31:15.000Z,47.2
2022-09-12T10:32:18.611Z,47.7
2022-09-12T10:33:22.345Z,46.9
2022-09-12T10:34:25.772Z,46.4
2022-09-12T10:35:28.616Z,46.3
2022-09-12T10:36:32.158Z,44.7
2022-09-12T10:37:35.150Z,45.4
2022-09-12T10:38:38.884Z,45.1
2022-09-12T10:39:42.210Z,44.3
2022-09-12T10:40:45.829Z,43.9
2022-09-12T10:41:48.698Z,42.8
2022-09-12T10:42:52.060Z,44.3
2022-09-12T10:43:54.299Z,44.5
2022-09-12T10:44:58.094Z,43.7
2022-09-12T10:46:01.787Z,42.4
2022-09-12T10:47:04.918Z,42.4
2022-09-12T10:48:09.010Z,42.7
2022-09-12T10:49:12.118Z,43.3
2022-09-12T10:50:24.225Z,44
2022-09-12T10:51:27.315Z,46.2
2022-09-12T10:52:31.171Z,45.5
2022-09-12T10:53:36.935Z,45.3
2022-09-12T10:54:40.401Z,44
2022-09-12T10:55:43.772Z,43.6
2022-09-12T10:56:46.660Z,43.4
2022-09-12T10:57:49.795Z,44.1
2022-09-12T10:58:52.884Z,44.5
2022-09-12T10:59:55.760Z,44.7
2022-09-12T11:00:59.534Z,44.8
2022-09-12T11:02:17.765Z,45
2022-09-12T11:03:21.116Z,47
2022-09-12T11:04:24.843Z,48
2022-09-12T11:05:27.945Z,47.5
2022-09-12T11:06:31.459Z,47.6
2022-09-12T11:07:34.653Z,46.4
2022-09-12T11:08:37.715Z,45.8
2022-09-12T11:09:41.074Z,46.3
2022-09-12T11:10:45.704Z,46.5
2022-09-12T11:11:48.332Z,47
2022-09-12T11:12:52.348Z,45.2
2022-09-12T11:13:55.070Z,46.4
2022-09-12T11:14:58.051Z,47.4
2022-09-12T11:16:01.320Z,47.4
2022-09-12T11:17:04.318Z,45.4
2022-09-12T11:18:06.907Z,45.5
2022-09-12T11:19:09.890Z,44.5
2022-09-12T11:20:13.442Z,45.1
2022-09-12T11:21:16.794Z,44.6
2022-09-12T11:22:20.300Z,44.5
2022-09-12T11:23:23.774Z,45.3
2022-09-12T11:24:26.843Z,45.5
2022-09-12T11:25:29.990Z,45.6
2022-09-12T11:26:33.741Z,45
2022-09-12T11:27:37.168Z,46.5
2022-09-12T11:28:47.852Z,48.5
2022-09-12T11:29:50.452Z,49.7
2022-09-12T11:30:53.603Z,49.4
2022-09-12T11:31:56.851Z,47.9
2022-09-12T11:32:59.941Z,46.9
2022-09-12T11:34:03.122Z,46.1
2022-09-12T11:35:05.940Z,45.7
2022-09-12T11:36:09.030Z,44.6
2022-09-12T11:37:19.102Z,44.6
2022-09-12T11:38:22.466Z,44.3
2022-09-12T11:39:25.853Z,46
2022-09-12T11:40:29.544Z,45.9
2022-09-12T11:41:32.610Z,45
2022-09-12T11:42:35.534Z,45.9
2022-09-12T11:43:39.595Z,45.4
2022-09-12T11:44:42.213Z,46.2
2022-09-12T11:45:45.193Z,46
2022-09-12T11:46:53.372Z,46.7
2022-09-12T11:47:56.526Z,46.1
2022-09-12T11:48:59.434Z,47.5
2022-09-12T11:50:01.591Z,46.9
2022-09-12T11:51:04.462Z,46.8
2022-09-12T11:52:08.473Z,49
2022-09-12T11:53:11.990Z,50
2022-09-12T11:54:15.073Z,47.9
2022-09-12T11:55:18.467Z,49.1
2022-09-12T11:56:21.810Z,49.5
2022-09-12T11:57:25.160Z,45.4
2022-09-12T11:58:28.899Z,46.3
2022-09-12T11:59:32.640Z,46.9
2022-09-12T12:00:35.756Z,46.5
2022-09-12T12:01:49.445Z,47
2022-09-12T12:02:52.558Z,46.9
2022-09-12T12:03:56.198Z,46.9
2022-09-12T12:04:58.598Z,47.1
2022-09-12T12:06:01.500Z,46.5
2022-09-12T12:07:04.382Z,45.5
2022-09-12T12:08:07.710Z,46.3
2022-09-12T12:09:11.128Z,45.4
2022-09-12T12:10:14.357Z,44.8
2022-09-12T12:11:17.017Z,45.6
2022-09-12T12:12:20.939Z,45.4
2022-09-12T12:13:24.170Z,46.1
2022-09-12T12:14:27.640Z,44.9
2022-09-12T12:15:31.417Z,45.4
2022-09-12T12:16:34.821Z,45.8
2022-09-12T12:17:38.241Z,46.3
2022-09-12T12:18:41.324Z,45.2
2022-09-12T12:19:44.956Z,44.9
2022-09-12T12:20:48.386Z,44.2
2022-09-12T12:21:51.165Z,43.9
2022-09-12T12:22:54.343Z,44.4
2022-09-12T12:23:57.782Z,44.2
2022-09-12T12:25:00.391Z,44.3
2022-09-12T12:26:03.387Z,44
2022-09-12T12:27:06.862Z,43.1
2022-09-12T12:28:10.293Z,42.8
2022-09-12T12:29:13.721Z,44.7
2022-09-12T12:30:17.470Z,44.1
2022-09-12T12:31:21.081Z,43.2
2022-09-12T12:32:24.703Z,43.6
2022-09-12T12:33:27.585Z,43.8
2022-09-12T12:34:30.394Z,44.9
2022-09-12T12:35:33.853Z,44.5
2022-09-12T12:36:37.007Z,43.9
2022-09-12T12:37:40.459Z,45.2
2022-09-12T12:38:43.534Z,45.7
2022-09-12T12:39:47.024Z,48
2022-09-12T12:40:50.957Z,47.5
2022-09-12T12:41:52.902Z,46.9
2022-09-12T12:42:56.656Z,48
2022-09-12T12:43:59.638Z,48
2022-09-12T12:45:02.770Z,48.2
2022-09-12T12:46:06.832Z,47.8
2022-09-12T12:47:09.896Z,47.8
2022-09-12T12:48:13.420Z,48.2
2022-09-12T12:49:16.500Z,48.1
2022-09-12T12:50:19.292Z,48.5
2022-09-12T12:51:22.634Z,46.1
2022-09-12T12:52:25.522Z,46
2022-09-12T12:53:28.771Z,46.1
2022-09-12T12:54:30.997Z,46.5
2022-09-12T12:55:34.479Z,46.4
2022-09-12T12:56:36.747Z,47
2022-09-12T12:57:39.904Z,46.5
2022-09-12T12:58:42.755Z,46.4
2022-09-12T12:59:46.207Z,47
2022-09-12T13:00:48.937Z,46.6
2022-09-12T13:01:56.462Z,46.3
2022-09-12T13:03:00.225Z,45.6
2022-09-12T13:04:03.394Z,45.5
2022-09-12T13:05:06.467Z,45.3
2022-09-12T13:06:09.491Z,46.6
2022-09-12T13:07:12.298Z,48.2
2022-09-12T13:08:14.816Z,49.5
2022-09-12T13:09:17.912Z,47.6
2022-09-12T13:10:20.909Z,47.6
2022-09-12T13:11:23.621Z,51.6
2022-09-12T13:12:27.046Z,54.3
2022-09-12T13:13:29.846Z,52
2022-09-12T13:14:33.356Z,48.9
2022-09-12T13:15:37.433Z,50.2
2022-09-12T13:16:40.478Z,52.8
2022-09-12T13:17:44.218Z,50.2
2022-09-12T13:18:48.523Z,48.5
2022-09-12T13:20:30.059Z,48.7
2022-09-12T13:21:33.774Z,48.4
2022-09-12T13:22:37.315Z,48.7
2022-09-12T13:23:40.209Z,50
2022-09-12T13:24:42.514Z,49.4
2022-09-12T13:25:45.297Z,49
2022-09-12T13:26:48.742Z,49.2
2022-09-12T13:27:51.929Z,52.6
2022-09-12T13:28:55.658Z,53.7
2022-09-12T13:29:59.837Z,49.3
2022-09-12T13:31:03.227Z,49.9
2022-09-12T13:32:06.195Z,49.6
2022-09-12T13:33:08.850Z,49.1
2022-09-12T13:34:12.290Z,49.4
2022-09-12T13:35:15.485Z,49.9
2022-09-12T13:36:18.304Z,49.8
2022-09-12T13:37:21.572Z,49.2
2022-09-12T13:38:24.296Z,48.8
2022-09-12T13:39:27.395Z,49.4
2022-09-12T13:40:30.835Z,50.2
2022-09-12T13:41:33.912Z,50.3
2022-09-12T13:42:37.635Z,50.4
2022-09-12T13:43:41.151Z,49.5
2022-09-12T13:44:43.960Z,49.4
2022-09-12T13:45:47.016Z,49.3
2022-09-12T13:46:50.413Z,49.1
2022-09-12T13:47:59.682Z,50.4
2022-09-12T13:49:03.443Z,49.9
2022-09-12T13:50:06.945Z,50.3
2022-09-12T13:51:10.681Z,49.8
2022-09-12T13:52:14.671Z,49.3
2022-09-12T13:53:18.324Z,49.4
2022-09-12T13:54:25.675Z,50.5
2022-09-12T13:55:28.750Z,51
2022-09-12T13:56:32.211Z,51.5
2022-09-12T13:57:35.351Z,51.3
2022-09-12T13:58:38.522Z,51.9
2022-09-12T13:59:41.988Z,52.7
2022-09-12T14:00:45.459Z,51.9
2022-09-12T14:01:47.932Z,52.2
2022-09-12T14:02:51.949Z,52.2
2022-09-12T14:04:00.135Z,52.1
2022-09-12T14:05:04.147Z,52
2022-09-12T14:06:07.933Z,52.1
2022-09-12T14:07:11.481Z,51.4
2022-09-12T14:08:14.268Z,51.1
2022-09-12T14:09:19.011Z,50.3